Time;durP1;ratioP1;P1;durP2;ratioP2;P2;SDS_P1;SDS_P2;PMS_P1;PMS_P2;Temp;Humidity;BMP_temperature;BMP_pressure;BME280_temperature;BME280_humidity;BME280_pressure;Samples;Min_cycle;Max_cycle;Signal;HPM_P1;HPM_P2
2023/10/07 00:02:33;;;;;;;2.75;2.55;;;;;;;9.79;100.00;99393.53;4149737;28;20216;-47
2023/10/07 00:04:38;;;;;;;3.13;2.80;;;;;;;9.76;100.00;99407.69;4156169;28;20227;-47
2023/10/07 00:06:41;;;;;;;2.70;2.47;;;;;;;9.75;100.00;99398.63;4169204;28;20231;-48
2023/10/07 00:08:44;;;;;;;5.88;4.65;;;;;;;9.83;100.00;99394.78;4135206;28;20221;-48
2023/10/07 00:10:48;;;;;;;3.75;3.20;;;;;;;9.77;100.00;99401.16;4154273;28;20271;-48
2023/10/07 00:12:51;;;;;;;4.22;2.20;;;;;;;9.73;100.00;99408.09;4153857;28;20223;-46
2023/10/07 00:14:53;;;;;;;3.33;2.75;;;;;;;9.80;100.00;99406.16;4153972;28;20236;-47
2023/10/07 00:16:55;;;;;;;4.20;2.50;;;;;;;9.78;100.00;99402.81;4167311;28;20235;-49
2023/10/07 00:18:57;;;;;;;4.45;3.38;;;;;;;9.65;100.00;99402.91;4166369;28;20209;-48
2023/10/07 00:20:59;;;;;;;3.17;2.55;;;;;;;9.56;100.00;99401.53;4154275;28;21375;-47
2023/10/07 00:23:01;;;;;;;4.68;3.75;;;;;;;9.68;100.00;99391.56;4170333;28;20243;-47
2023/10/07 00:25:05;;;;;;;3.72;2.50;;;;;;;9.56;100.00;99394.16;4168282;28;20200;-48
2023/10/07 00:27:18;;;;;;;2.13;1.85;;;;;;;9.63;100.00;99394.94;4149542;28;20229;-47
2023/10/07 00:29:23;;;;;;;2.58;2.38;;;;;;;9.49;100.00;99398.00;4153053;28;20209;-49
2023/10/07 00:31:27;;;;;;;4.78;2.63;;;;;;;9.58;100.00;99391.22;4149777;28;20325;-49
2023/10/07 00:34:02;;;;;;;2.67;2.30;;;;;;;9.40;100.00;99393.84;4167528;28;20272;-47
2023/10/07 00:35:55;;;;;;;4.13;2.85;;;;;;;9.34;100.00;99389.31;4153709;28;20237;-48
2023/10/07 00:37:58;;;;;;;3.85;2.65;;;;;;;9.38;100.00;99394.09;4152178;28;20235;-47
2023/10/07 00:40:13;;;;;;;2.65;2.20;;;;;;;9.36;100.00;99395.38;4157860;28;20235;-47
2023/10/07 00:42:15;;;;;;;3.58;2.45;;;;;;;9.44;100.00;99401.41;4156140;28;21235;-47
2023/10/07 00:46:28;;;;;;;2.58;2.35;;;;;;;9.46;100.00;99384.78;4150059;28;20279;-47
2023/10/07 00:48:42;;;;;;;2.67;2.08;;;;;;;9.44;100.00;99395.09;4152047;28;20217;-47
2023/10/07 00:50:45;;;;;;;2.28;2.03;;;;;;;9.38;100.00;99396.84;4153376;28;20233;-48
2023/10/07 00:52:55;;;;;;;2.72;2.42;;;;;;;9.38;100.00;99402.31;4152097;28;20641;-47
2023/10/07 00:55:24;;;;;;;2.97;2.63;;;;;;;9.41;100.00;99407.31;4167241;28;20207;-47
2023/10/07 00:57:37;;;;;;;3.30;2.17;;;;;;;9.40;100.00;99404.78;4150657;28;21592;-47
2023/10/07 00:59:40;;;;;;;4.63;2.00;;;;;;;9.46;100.00;99414.84;4148439;28;20672;-46
2023/10/07 01:01:46;;;;;;;2.80;2.45;;;;;;;9.41;100.00;99406.50;4147480;28;20618;-46
2023/10/07 01:03:49;;;;;;;2.50;2.33;;;;;;;9.55;100.00;99391.66;4148041;28;20213;-46
2023/10/07 01:06:10;;;;;;;3.08;2.72;;;;;;;9.36;100.00;99392.66;4152419;28;20213;-47
2023/10/07 01:08:12;;;;;;;5.95;3.05;;;;;;;9.24;100.00;99373.41;4156103;28;20654;-47
2023/10/07 01:10:14;;;;;;;13.50;2.80;;;;;;;9.07;100.00;99376.84;4157529;28;20201;-47
2023/10/07 01:12:18;;;;;;;1.98;1.70;;;;;;;9.06;100.00;99367.84;4164819;28;20228;-49
2023/10/07 01:14:21;;;;;;;3.58;3.22;;;;;;;9.00;100.00;99367.88;4154182;28;20208;-47
2023/10/07 01:16:41;;;;;;;3.85;3.03;;;;;;;9.03;100.00;99359.25;4164686;28;20645;-48
2023/10/07 01:18:43;;;;;;;2.22;2.03;;;;;;;8.93;100.00;99370.66;4167504;28;20216;-48
2023/10/07 01:23:03;;;;;;;2.70;1.83;;;;;;;9.07;100.00;99379.59;4150433;28;20267;-48
2023/10/07 01:25:09;;;;;;;2.50;1.90;;;;;;;9.10;100.00;99392.81;4156667;28;20220;-47
2023/10/07 01:27:22;;;;;;;2.90;2.08;;;;;;;9.14;100.00;99389.41;4152752;28;20241;-47
2023/10/07 01:29:23;;;;;;;3.85;2.47;;;;;;;9.10;100.00;99392.81;4155597;28;20208;-47
2023/10/07 01:31:29;;;;;;;2.55;2.00;;;;;;;9.06;100.00;99397.03;4156843;28;20205;-48
2023/10/07 01:33:47;;;;;;;4.47;2.80;;;;;;;9.09;100.00;99391.97;4157136;28;20223;-48
2023/10/07 01:38:09;;;;;;;3.67;2.90;;;;;;;8.97;100.00;99414.72;4152763;28;20733;-47
2023/10/07 01:40:16;;;;;;;1.75;1.65;;;;;;;9.06;100.00;99414.25;4155606;28;20224;-47
2023/10/07 01:42:37;;;;;;;7.40;2.63;;;;;;;8.96;100.00;99407.59;4152449;28;20217;-47
2023/10/07 01:44:41;;;;;;;2.85;2.55;;;;;;;9.05;100.00;99403.53;4154744;28;20214;-47
2023/10/07 01:46:44;;;;;;;3.05;1.55;;;;;;;8.82;100.00;99395.91;4155161;28;20235;-48
2023/10/07 01:49:30;;;;;;;2.28;1.92;;;;;;;8.92;100.00;99400.88;4151577;28;20267;-48
2023/10/07 01:51:14;;;;;;;3.55;3.30;;;;;;;8.79;100.00;99395.50;4143920;28;20201;-47
2023/10/07 01:53:16;;;;;;;4.15;2.38;;;;;;;8.87;100.00;99398.81;4147205;28;20686;-47
2023/10/07 01:55:19;;;;;;;6.65;2.75;;;;;;;8.77;100.00;99393.00;4152514;28;20213;-47
2023/10/07 01:57:21;;;;;;;2.97;1.60;;;;;;;8.73;100.00;99397.22;4155868;28;20232;-47
2023/10/07 01:59:23;;;;;;;8.23;3.15;;;;;;;8.77;100.00;99393.00;4156143;28;20579;-47
2023/10/07 02:01:28;;;;;;;3.65;3.35;;;;;;;8.75;100.00;99400.53;4140814;28;20212;-47
2023/10/07 02:03:30;;;;;;;3.00;1.73;;;;;;;8.77;100.00;99398.47;4167410;28;20242;-47
2023/10/07 02:05:40;;;;;;;4.28;2.78;;;;;;;8.77;100.00;99400.34;4151102;28;20228;-47
2023/10/07 02:07:43;;;;;;;2.55;2.35;;;;;;;8.83;100.00;99402.19;4166012;28;20281;-48
2023/10/07 02:09:45;;;;;;;6.53;2.28;;;;;;;8.85;100.00;99394.63;4149413;28;20240;-47
2023/10/07 02:11:48;;;;;;;2.05;1.95;;;;;;;8.87;100.00;99392.50;4139525;28;20276;-48
2023/10/07 02:13:51;;;;;;;3.72;2.08;;;;;;;8.81;100.00;99398.88;4138866;28;21066;-47
2023/10/07 02:15:57;;;;;;;3.70;3.10;;;;;;;8.75;100.00;99394.28;4154655;28;20224;-47
2023/10/07 02:17:59;;;;;;;3.55;2.47;;;;;;;8.78;100.00;99394.69;4154970;28;20231;-47
2023/10/07 02:20:22;;;;;;;2.83;2.25;;;;;;;8.74;100.00;99398.06;4150041;28;20711;-47
2023/10/07 02:22:27;;;;;;;3.15;2.53;;;;;;;8.76;100.00;99413.13;4149356;28;20267;-47
2023/10/07 02:24:31;;;;;;;2.55;1.80;;;;;;;8.81;100.00;99412.50;4151933;28;20211;-47
2023/10/07 02:26:33;;;;;;;5.43;2.65;;;;;;;8.91;100.00;99401.94;4157283;28;20259;-47
2023/10/07 02:28:35;;;;;;;2.55;1.75;;;;;;;8.73;100.00;99408.13;4158590;28;20325;-48
2023/10/07 02:33:01;;;;;;;2.83;2.33;;;;;;;8.73;100.00;99401.81;4152780;28;20231;-47
2023/10/07 02:35:09;;;;;;;2.75;2.50;;;;;;;8.74;100.00;99414.44;4151080;28;20231;-47
2023/10/07 02:37:12;;;;;;;2.70;2.50;;;;;;;8.65;100.00;99415.72;4154286;28;20232;-47
2023/10/07 02:39:24;;;;;;;2.63;1.90;;;;;;;8.62;100.00;99405.25;4144960;28;20523;-49
2023/10/07 02:41:25;;;;;;;2.40;2.30;;;;;;;8.73;100.00;99410.00;4146188;28;20204;-47
2023/10/07 02:43:27;;;;;;;2.53;2.20;;;;;;;8.62;100.00;99402.50;4151176;28;20212;-47
2023/10/07 02:45:29;;;;;;;3.08;2.35;;;;;;;8.59;100.00;99406.50;4145147;28;20215;-47
2023/10/07 02:47:32;;;;;;;5.72;2.38;;;;;;;8.59;100.00;99400.19;4149769;28;20224;-48
2023/10/07 02:49:39;;;;;;;2.35;2.15;;;;;;;8.56;100.00;99395.19;4150066;28;20732;-47
2023/10/07 02:51:49;;;;;;;2.95;2.05;;;;;;;8.60;100.00;99393.69;4149347;28;20242;-47
2023/10/07 02:53:58;;;;;;;3.35;2.50;;;;;;;8.62;100.00;99395.16;4154747;28;20201;-48
2023/10/07 02:56:02;;;;;;;2.08;1.98;;;;;;;8.58;100.00;99393.91;4153830;28;20232;-47
2023/10/07 02:58:05;;;;;;;2.30;1.92;;;;;;;8.61;100.00;99385.28;4154075;28;20212;-47
2023/10/07 03:00:16;;;;;;;8.02;3.38;;;;;;;8.63;100.00;99379.63;4157895;28;20213;-47
2023/10/07 03:04:22;;;;;;;7.93;2.75;;;;;;;8.52;100.00;99377.56;4153380;28;20231;-48
2023/10/07 03:06:28;;;;;;;2.28;1.85;;;;;;;8.47;100.00;99385.56;4154620;28;20233;-47
2023/10/07 03:13:15;;;;;;;3.15;2.85;;;;;;;8.40;100.00;99379.28;4154667;28;20578;-47
2023/10/07 03:15:39;;;;;;;3.08;2.15;;;;;;;8.38;100.00;99378.66;4167833;28;20212;-47
2023/10/07 03:17:45;;;;;;;2.50;1.90;;;;;;;8.37;100.00;99385.19;4170183;28;20214;-48
2023/10/07 03:19:52;;;;;;;2.90;1.98;;;;;;;8.41;100.00;99381.00;4141865;28;20675;-48
2023/10/07 03:21:55;;;;;;;5.63;2.20;;;;;;;8.47;100.00;99380.09;4158171;28;20228;-48
2023/10/07 03:23:58;;;;;;;2.75;1.85;;;;;;;8.38;100.00;99367.75;4169895;28;20677;-47
2023/10/07 03:28:16;;;;;;;6.22;2.72;;;;;;;8.20;100.00;99373.06;4153171;28;20210;-47
2023/10/07 03:30:19;;;;;;;1.80;1.70;;;;;;;8.22;100.00;99381.88;4139030;28;20212;-46
2023/10/07 03:32:21;;;;;;;2.78;2.55;;;;;;;8.22;100.00;99398.25;4169571;28;20208;-47
2023/10/07 03:34:24;;;;;;;2.47;2.28;;;;;;;8.26;100.00;99400.31;4152275;28;20212;-47
2023/10/07 03:36:45;;;;;;;5.78;3.10;;;;;;;8.25;100.00;99392.34;4158550;28;20351;-47
2023/10/07 03:39:23;;;;;;;3.78;2.30;;;;;;;8.22;100.00;99400.97;4156258;28;21416;-48
2023/10/07 03:41:23;;;;;;;3.25;1.85;;;;;;;8.24;100.00;99404.31;4151700;28;20212;-47
2023/10/07 03:43:26;;;;;;;3.17;2.17;;;;;;;8.30;100.00;99400.72;4153577;28;20205;-48
2023/10/07 03:45:28;;;;;;;1.92;1.83;;;;;;;8.20;100.00;99403.03;4157036;28;20214;-47
2023/10/07 03:47:32;;;;;;;2.08;1.38;;;;;;;8.09;100.00;99409.13;4166713;28;20669;-48
2023/10/07 03:49:37;;;;;;;5.28;2.67;;;;;;;8.07;100.00;99406.63;4152405;28;20271;-47
2023/10/07 03:51:39;;;;;;;3.10;2.22;;;;;;;8.06;100.00;99409.53;4153713;28;20295;-47
2023/10/07 03:53:46;;;;;;;3.50;1.98;;;;;;;8.26;100.00;99405.78;4152369;28;20259;-47
2023/10/07 03:55:48;;;;;;;3.47;2.58;;;;;;;8.08;100.00;99412.91;4169400;28;20218;-47
2023/10/07 03:57:50;;;;;;;6.82;2.13;;;;;;;7.95;100.00;99418.38;4152624;28;20209;-47
2023/10/07 03:59:53;;;;;;;3.88;3.30;;;;;;;8.11;100.00;99420.66;4169285;28;20204;-47
2023/10/07 04:01:55;;;;;;;3.50;2.88;;;;;;;7.85;100.00;99413.34;4167271;28;20217;-46
2023/10/07 04:03:59;;;;;;;2.30;2.10;;;;;;;7.89;100.00;99406.41;4155072;28;20233;-47
2023/10/07 04:06:01;;;;;;;2.78;2.55;;;;;;;7.84;100.00;99392.63;4156059;28;20731;-47
2023/10/07 04:08:03;;;;;;;3.28;2.97;;;;;;;7.75;100.00;99406.66;4152599;28;20216;-47
2023/10/07 04:10:15;;;;;;;1.98;1.85;;;;;;;7.79;100.00;99402.44;4152736;28;20208;-47
2023/10/07 04:12:17;;;;;;;2.65;2.45;;;;;;;7.75;100.00;99412.94;4156222;28;20613;-47
2023/10/07 04:14:27;;;;;;;8.10;2.63;;;;;;;7.83;100.00;99409.16;4152883;28;20614;-47
2023/10/07 04:16:33;;;;;;;3.58;3.25;;;;;;;8.00;100.00;99402.22;4142360;28;20315;-47
2023/10/07 04:18:35;;;;;;;4.57;3.40;;;;;;;7.99;100.00;99414.16;4166977;28;20206;-47
2023/10/07 04:21:12;;;;;;;3.60;2.50;;;;;;;8.11;100.00;99401.56;4158959;28;20679;-46
2023/10/07 04:23:05;;;;;;;3.10;2.05;;;;;;;8.14;100.00;99388.34;4149520;28;20232;-46
2023/10/07 04:25:13;;;;;;;5.88;2.67;;;;;;;8.09;100.00;99387.31;4156657;28;20237;-47
2023/10/07 04:27:20;;;;;;;3.88;2.95;;;;;;;8.16;100.00;99378.06;4156749;28;20282;-46
2023/10/07 04:29:22;;;;;;;3.70;3.35;;;;;;;8.22;100.00;99381.88;4155157;28;20498;-47
2023/10/07 04:31:30;;;;;;;2.85;2.55;;;;;;;8.21;100.00;99391.13;4168114;28;20260;-47
2023/10/07 04:33:39;;;;;;;4.88;3.15;;;;;;;8.20;100.00;99389.41;4155418;28;20216;-47
2023/10/07 04:35:49;;;;;;;3.67;3.40;;;;;;;8.25;100.00;99395.06;4140744;28;20209;-48
2023/10/07 04:38:08;;;;;;;3.95;3.42;;;;;;;8.19;100.00;99384.97;4170402;28;20642;-47
2023/10/07 04:42:23;;;;;;;2.65;2.45;;;;;;;8.21;100.00;99391.94;4150778;28;20209;-47
2023/10/07 04:46:56;;;;;;;3.38;2.42;;;;;;;8.19;100.00;99393.16;4153204;28;20287;-48
2023/10/07 04:49:12;;;;;;;2.67;1.75;;;;;;;8.17;100.00;99395.28;4151510;28;20323;-47
2023/10/07 04:51:24;;;;;;;2.53;2.33;;;;;;;8.12;100.00;99397.78;4152570;28;20228;-47
2023/10/07 04:53:25;;;;;;;3.40;2.08;;;;;;;8.09;100.00;99409.13;4156435;28;20679;-47
2023/10/07 04:55:27;;;;;;;3.22;3.03;;;;;;;8.16;100.00;99407.22;4153120;28;20653;-47
2023/10/07 04:57:56;;;;;;;3.85;2.90;;;;;;;8.09;100.00;99409.13;4165046;28;20532;-47
2023/10/07 04:59:58;;;;;;;3.97;2.78;;;;;;;8.03;100.00;99410.81;4166446;28;20641;-47
2023/10/07 05:02:10;;;;;;;2.92;2.17;;;;;;;8.01;100.00;99417.53;4155786;28;20640;-46
2023/10/07 05:04:15;;;;;;;3.60;2.25;;;;;;;8.10;100.00;99413.53;4166289;28;20204;-47
2023/10/07 05:06:18;;;;;;;3.42;2.58;;;;;;;8.17;100.00;99395.28;4166521;28;20231;-49
2023/10/07 05:08:22;;;;;;;3.63;2.80;;;;;;;7.98;100.00;99397.00;4155533;28;20217;-47
2023/10/07 05:10:29;;;;;;;5.82;2.47;;;;;;;8.04;100.00;99398.88;4148294;28;20270;-46
2023/10/07 05:12:31;;;;;;;3.15;2.13;;;;;;;8.05;100.00;99402.41;4140802;28;20295;-46
2023/10/07 05:14:35;;;;;;;4.18;3.65;;;;;;;8.06;100.00;99404.94;4155451;28;20243;-46
2023/10/07 05:16:37;;;;;;;4.82;3.17;;;;;;;8.18;100.00;99402.41;4155652;28;20243;-48
2023/10/07 05:18:40;;;;;;;2.63;2.42;;;;;;;8.08;100.00;99402.84;4165774;28;20309;-47
2023/10/07 05:20:46;;;;;;;2.70;2.50;;;;;;;8.09;100.00;99414.59;4153531;28;20620;-47
2023/10/07 05:22:48;;;;;;;3.33;3.05;;;;;;;8.12;100.00;99408.69;4167831;28;20215;-46
2023/10/07 05:24:56;;;;;;;2.40;1.88;;;;;;;8.10;100.00;99410.81;4153386;28;20906;-47
2023/10/07 05:27:02;;;;;;;2.03;1.85;;;;;;;8.12;100.00;99414.16;4150747;28;20255;-47
2023/10/07 05:29:04;;;;;;;2.85;2.65;;;;;;;8.20;100.00;99428.44;4150967;28;20319;-47
2023/10/07 05:31:08;;;;;;;3.35;3.05;;;;;;;8.28;100.00;99430.94;4151133;28;20307;-47
2023/10/07 05:33:10;;;;;;;5.28;2.75;;;;;;;8.35;100.00;99425.47;4155806;28;20296;-48
2023/10/07 05:35:15;;;;;;;2.10;1.98;;;;;;;8.40;100.00;99428.38;4151406;28;20710;-48
2023/10/07 05:37:18;;;;;;;3.03;2.53;;;;;;;8.41;100.00;99421.91;4150788;28;20639;-47
2023/10/07 05:39:20;;;;;;;4.20;2.95;;;;;;;8.35;100.00;99431.75;4156681;28;20209;-47
2023/10/07 05:41:25;;;;;;;4.90;3.25;;;;;;;8.33;100.00;99433.00;4167260;28;20270;-47
2023/10/07 05:43:31;;;;;;;2.75;1.73;;;;;;;8.29;100.00;99431.78;4155854;28;20563;-47
2023/10/07 05:45:34;;;;;;;3.25;2.15;;;;;;;8.30;100.00;99430.72;4166984;28;20290;-46
2023/10/07 05:47:36;;;;;;;3.90;2.53;;;;;;;8.44;100.00;99424.19;4149520;28;20742;-47
2023/10/07 05:49:38;;;;;;;3.38;2.53;;;;;;;8.28;100.00;99430.09;4154876;28;20328;-47
2023/10/07 05:51:41;;;;;;;4.35;3.92;;;;;;;8.37;100.00;99420.63;4164601;28;20349;-47
2023/10/07 05:53:49;;;;;;;4.78;3.70;;;;;;;8.32;100.00;99420.44;4151901;28;20208;-47
2023/10/07 05:55:53;;;;;;;4.15;3.50;;;;;;;8.41;100.00;99419.16;4149425;28;20210;-47
2023/10/07 05:57:55;;;;;;;3.40;2.05;;;;;;;8.42;100.00;99418.09;4151126;28;20259;-47
2023/10/07 05:59:58;;;;;;;4.25;3.42;;;;;;;8.16;100.00;99424.41;4154653;28;20293;-46
2023/10/07 06:02:05;;;;;;;2.17;2.08;;;;;;;8.25;100.00;99425.91;4152121;28;20252;-47
2023/10/07 06:04:09;;;;;;;4.07;2.47;;;;;;;8.28;100.00;99435.56;4153990;28;20351;-47
2023/10/07 06:06:11;;;;;;;3.20;2.85;;;;;;;8.23;100.00;99427.16;4153782;28;20862;-47
2023/10/07 06:08:15;;;;;;;3.08;2.28;;;;;;;8.34;100.00;99415.63;4155104;28;20216;-47
2023/10/07 06:10:17;;;;;;;3.70;3.05;;;;;;;8.42;100.00;99426.28;4166972;28;20302;-47
2023/10/07 06:12:21;;;;;;;3.15;2.85;;;;;;;8.45;100.00;99426.69;4166692;28;20694;-47
2023/10/07 06:14:24;;;;;;;18.30;3.58;;;;;;;8.53;100.00;99431.06;4154324;28;20276;-47
2023/10/07 06:16:26;;;;;;;4.18;3.00;;;;;;;8.53;100.00;99418.28;4152555;28;20231;-48
2023/10/07 06:18:31;;;;;;;4.65;2.60;;;;;;;8.40;100.00;99422.91;4154027;28;20208;-47
2023/10/07 06:20:46;;;;;;;4.03;3.72;;;;;;;8.30;100.00;99428.00;4154939;28;20216;-47
2023/10/07 06:22:48;;;;;;;3.05;2.75;;;;;;;8.39;100.00;99430.28;4167668;28;20209;-47
2023/10/07 06:24:55;;;;;;;5.32;4.43;;;;;;;8.51;100.00;99427.72;4166223;28;20329;-47
2023/10/07 06:26:58;;;;;;;3.63;2.63;;;;;;;8.49;100.00;99429.84;4134059;28;20234;-47
2023/10/07 06:29:18;;;;;;;2.30;2.10;;;;;;;8.48;100.00;99441.81;4148402;28;20580;-46
2023/10/07 06:31:31;;;;;;;2.63;2.42;;;;;;;8.57;100.00;99430.44;4158584;28;20212;-47
2023/10/07 06:33:33;;;;;;;3.22;2.35;;;;;;;8.58;100.00;99431.25;4151920;28;20261;-47
2023/10/07 06:35:37;;;;;;;2.30;1.92;;;;;;;8.55;100.00;99428.97;4153927;28;20240;-47
2023/10/07 06:37:42;;;;;;;3.72;2.75;;;;;;;8.70;100.00;99424.09;4164041;28;20319;-47
2023/10/07 06:39:44;;;;;;;4.30;3.47;;;;;;;8.71;100.00;99420.31;4167321;28;20718;-47
2023/10/07 06:41:45;;;;;;;3.22;2.70;;;;;;;8.73;100.00;99418.19;4151927;28;20212;-47
2023/10/07 06:43:50;;;;;;;2.92;2.58;;;;;;;8.75;100.00;99421.56;4165994;28;20244;-46
2023/10/07 06:45:54;;;;;;;3.63;2.55;;;;;;;8.83;100.00;99426.78;4151870;28;20213;-47
2023/10/07 06:47:59;;;;;;;3.13;2.60;;;;;;;8.87;100.00;99430.72;4153346;28;20209;-47
2023/10/07 06:50:02;;;;;;;8.27;4.97;;;;;;;9.01;100.00;99427.72;4153671;28;20271;-47
2023/10/07 06:52:04;;;;;;;3.25;2.25;;;;;;;9.01;100.00;99429.63;4153352;28;20220;-47
2023/10/07 06:54:07;;;;;;;6.00;3.33;;;;;;;9.06;100.00;99446.16;4153941;28;20256;-48
2023/10/07 06:56:22;;;;;;;4.03;2.97;;;;;;;9.11;100.00;99439.03;4148927;28;20259;-47
2023/10/07 06:58:25;;;;;;;2.88;2.65;;;;;;;9.08;100.00;99455.00;4148231;28;20212;-48
2023/10/07 07:00:37;;;;;;;4.30;3.42;;;;;;;9.08;100.00;99452.28;4150734;28;20217;-46
2023/10/07 07:02:40;;;;;;;2.83;2.63;;;;;;;9.16;100.00;99458.28;4143671;28;20243;-47
2023/10/07 07:04:42;;;;;;;3.33;2.30;;;;;;;9.19;100.00;99451.56;4149784;28;20296;-47
2023/10/07 07:06:45;;;;;;;4.22;3.58;;;;;;;9.27;100.00;99445.84;4146098;28;20618;-47
2023/10/07 07:08:47;;;;;;;3.75;2.75;;;;;;;9.02;100.00;99444.94;4164592;28;20662;-48
2023/10/07 07:10:50;;;;;;;16.33;3.25;;;;;;;9.11;100.00;99449.09;4148950;28;20236;-48
2023/10/07 07:12:58;;;;;;;6.05;3.85;;;;;;;9.21;100.00;99457.66;4155124;28;20287;-47
2023/10/07 07:15:08;;;;;;;4.05;3.67;;;;;;;9.24;100.00;99452.59;4148274;28;20707;-47
2023/10/07 07:19:37;;;;;;;2.70;2.47;;;;;;;9.43;100.00;99448.06;4151136;28;20193;-46
2023/10/07 07:21:41;;;;;;;5.80;3.38;;;;;;;9.54;100.00;99440.00;4148647;28;20231;-46
2023/10/07 07:23:49;;;;;;;4.07;3.75;;;;;;;9.59;100.00;99450.25;4135136;28;20721;-47
2023/10/07 07:26:09;;;;;;;4.30;2.95;;;;;;;9.65;100.00;99469.34;4165515;28;20262;-47
2023/10/07 07:28:11;;;;;;;4.60;3.35;;;;;;;9.79;100.00;99470.09;4139754;28;20206;-47
2023/10/07 07:30:20;;;;;;;5.20;3.03;;;;;;;9.89;100.00;99460.31;4150981;28;20228;-48
2023/10/07 07:32:28;;;;;;;3.65;3.35;;;;;;;9.89;100.00;99464.97;4143328;28;20205;-48
2023/10/07 07:34:36;;;;;;;4.97;3.10;;;;;;;10.00;100.00;99466.97;4166087;28;20313;-47
2023/10/07 07:36:39;;;;;;;7.50;2.50;;;;;;;9.99;100.00;99465.28;4166436;28;20232;-47
2023/10/07 07:38:44;;;;;;;9.77;2.55;;;;;;;10.13;100.00;99466.88;4146809;28;20240;-47
2023/10/07 07:40:45;;;;;;;2.22;1.88;;;;;;;10.16;100.00;99471.94;4140792;28;20217;-47
2023/10/07 07:42:55;;;;;;;2.75;2.30;;;;;;;10.16;100.00;99466.47;4158117;28;20629;-47
2023/10/07 07:44:57;;;;;;;2.35;2.15;;;;;;;10.23;100.00;99459.03;4156850;28;20204;-47
2023/10/07 07:47:02;;;;;;;4.13;3.72;;;;;;;10.28;100.00;99445.53;4154001;28;20527;-46
2023/10/07 07:49:08;;;;;;;14.85;2.42;;;;;;;10.29;100.00;99449.91;4147517;28;20715;-48
2023/10/07 07:51:11;;;;;;;4.75;3.30;;;;;;;10.33;100.00;99464.81;4153754;28;20236;-47
2023/10/07 07:53:13;;;;;;;3.33;2.97;;;;;;;10.33;100.00;99462.06;4153175;28;20211;-47
2023/10/07 07:55:18;;;;;;;3.95;3.58;;;;;;;10.39;100.00;99480.31;4166863;28;20212;-47
2023/10/07 07:57:22;;;;;;;2.97;2.10;;;;;;;10.39;100.00;99469.38;4169350;28;20285;-47
2023/10/07 07:59:24;;;;;;;3.25;2.67;;;;;;;10.45;100.00;99471.22;4156216;28;20258;-47
2023/10/07 08:01:29;;;;;;;5.35;2.15;;;;;;;10.54;100.00;99480.81;4167115;28;20204;-47
2023/10/07 08:03:35;;;;;;;3.17;2.78;;;;;;;10.69;100.00;99486.75;4153084;28;20215;-47
2023/10/07 08:05:39;;;;;;;6.20;2.78;;;;;;;10.74;100.00;99492.41;4154572;28;20205;-47
2023/10/07 08:07:43;;;;;;;6.43;2.80;;;;;;;10.79;100.00;99483.25;4152389;28;21127;-47
2023/10/07 08:09:46;;;;;;;7.35;3.33;;;;;;;10.94;100.00;99477.41;4156751;28;20721;-47
2023/10/07 08:11:49;;;;;;;4.43;2.60;;;;;;;11.00;100.00;99482.81;4166189;28;20288;-47
2023/10/07 08:13:53;;;;;;;1.90;1.65;;;;;;;10.97;100.00;99480.53;4155214;28;20213;-47
2023/10/07 08:15:55;;;;;;;2.95;2.28;;;;;;;11.17;100.00;99483.84;4153787;28;20227;-47
2023/10/07 08:17:57;;;;;;;3.13;2.55;;;;;;;11.24;100.00;99484.59;4153154;28;20255;-47
2023/10/07 08:19:59;;;;;;;2.58;2.38;;;;;;;11.28;100.00;99491.31;4152992;28;20204;-48
2023/10/07 08:22:03;;;;;;;3.13;2.30;;;;;;;11.31;100.00;99496.31;4155667;28;20617;-48
2023/10/07 08:24:06;;;;;;;8.18;2.70;;;;;;;11.45;100.00;99502.47;4151439;28;20610;-47
2023/10/07 08:26:10;;;;;;;2.78;1.98;;;;;;;11.49;100.00;99499.03;4168505;28;20229;-47
2023/10/07 08:28:23;;;;;;;6.53;2.58;;;;;;;11.58;100.00;99494.91;4152066;28;20296;-47
2023/10/07 08:31:12;;;;;;;4.00;2.75;;;;;;;11.62;100.00;99498.88;4155793;28;20251;-47
2023/10/07 08:32:53;;;;;;;14.30;3.65;;;;;;;11.82;100.00;99510.38;4150159;28;20683;-47
2023/10/07 08:34:59;;;;;;;2.97;2.35;;;;;;;11.93;100.00;99516.97;4151941;28;20633;-46
2023/10/07 08:37:02;;;;;;;3.10;2.70;;;;;;;11.97;100.00;99524.50;4153136;28;20644;-46
2023/10/07 08:39:05;;;;;;;3.30;2.50;;;;;;;12.08;100.00;99529.19;4146078;28;20264;-47
2023/10/07 08:41:10;;;;;;;5.00;2.53;;;;;;;12.38;100.00;99531.88;4145763;28;20296;-48
2023/10/07 08:43:16;;;;;;;13.00;3.65;;;;;;;12.49;100.00;99529.13;4150965;28;20216;-47
2023/10/07 08:45:23;;;;;;;2.10;1.98;;;;;;;12.55;100.00;99527.34;4152534;28;20274;-46
2023/10/07 08:47:39;;;;;;;2.85;2.47;;;;;;;12.68;100.00;99529.84;4170374;28;20228;-48
2023/10/07 08:49:43;;;;;;;3.60;2.80;;;;;;;12.73;100.00;99533.56;4165764;28;20219;-47
2023/10/07 08:51:45;;;;;;;4.13;3.00;;;;;;;12.70;100.00;99524.97;4154756;28;20259;-48
2023/10/07 08:53:47;;;;;;;2.58;2.33;;;;;;;12.82;100.00;99523.88;4142430;28;20213;-47
2023/10/07 08:55:54;;;;;;;3.03;1.83;;;;;;;12.75;100.00;99517.69;4156448;28;20320;-47
2023/10/07 08:57:57;;;;;;;2.35;2.00;;;;;;;12.91;100.00;99516.94;4155076;28;20208;-47
2023/10/07 08:59:59;;;;;;;3.10;2.22;;;;;;;12.84;100.00;99505.25;4153850;28;20203;-47
2023/10/07 09:02:03;;;;;;;5.43;2.40;;;;;;;12.80;100.00;99504.06;4163792;28;20205;-47
2023/10/07 09:04:09;;;;;;;2.47;2.28;;;;;;;12.89;100.00;99516.34;4152880;28;20219;-47
2023/10/07 09:06:11;;;;;;;2.70;1.85;;;;;;;13.00;100.00;99514.69;4154329;28;20224;-48
2023/10/07 09:08:15;;;;;;;1.95;1.60;;;;;;;13.10;100.00;99514.94;4161869;28;20906;-47
2023/10/07 09:10:17;;;;;;;3.40;2.50;;;;;;;13.20;100.00;99515.97;4170554;28;20680;-48
2023/10/07 09:12:29;;;;;;;4.07;1.70;;;;;;;13.26;100.00;99517.75;4164905;28;20236;-47
2023/10/07 09:14:33;;;;;;;2.60;2.40;;;;;;;13.27;100.00;99516.69;4182360;28;20263;-47
2023/10/07 09:16:35;;;;;;;2.38;1.85;;;;;;;13.25;100.00;99516.06;4167278;28;20688;-47
2023/10/07 09:18:41;;;;;;;2.15;1.95;;;;;;;13.32;100.00;99514.06;4170662;28;20250;-48
2023/10/07 09:20:45;;;;;;;2.22;1.95;;;;;;;13.38;100.00;99512.22;4180576;28;20204;-47
2023/10/07 09:22:53;;;;;;;2.58;2.05;;;;;;;13.46;100.00;99517.34;4168838;28;20314;-47
2023/10/07 09:25:08;;;;;;;1.50;1.40;;;;;;;13.63;100.00;99510.81;4182429;28;20409;-47
2023/10/07 09:27:13;;;;;;;3.00;2.08;;;;;;;13.71;100.00;99513.16;4166062;28;20700;-48
2023/10/07 09:29:15;;;;;;;5.70;1.98;;;;;;;13.69;100.00;99515.34;4183844;28;20245;-48
2023/10/07 09:31:19;;;;;;;3.55;2.13;;;;;;;13.92;100.00;99519.91;4159367;28;20716;-47
2023/10/07 09:33:21;;;;;;;3.03;2.42;;;;;;;14.14;100.00;99518.94;4154531;28;20570;-47
2023/10/07 09:35:25;;;;;;;1.92;1.60;;;;;;;14.24;100.00;99529.34;4183342;28;20206;-48
2023/10/07 09:37:32;;;;;;;1.30;0.80;;;;;;;14.30;100.00;99518.13;4180453;28;20236;-47
2023/10/07 09:39:43;;;;;;;2.45;2.25;;;;;;;14.36;100.00;99521.84;4170472;28;20208;-47
2023/10/07 09:41:55;;;;;;;3.20;1.90;;;;;;;14.55;100.00;99520.47;4164091;28;21837;-47
2023/10/07 09:43:57;;;;;;;4.18;1.55;;;;;;;14.53;100.00;99522.66;4162495;28;20807;-47
2023/10/07 09:45:59;;;;;;;81.22;20.63;;;;;;;14.50;100.00;99518.47;4182308;28;20312;-47
2023/10/07 09:48:05;;;;;;;44.35;8.23;;;;;;;14.56;100.00;99522.16;4158860;28;21498;-47
2023/10/07 09:52:29;;;;;;;6.28;3.72;;;;;;;14.67;100.00;99527.59;4166100;28;20208;-46
2023/10/07 09:55:21;;;;;;;3.38;2.45;;;;;;;14.71;100.00;99522.41;4166781;28;20219;-47
2023/10/07 09:57:42;;;;;;;5.25;1.33;;;;;;;14.86;100.00;99512.44;4154327;28;20263;-47
2023/10/07 10:03:04;;;;;;;1.58;1.20;;;;;;;15.06;99.08;99512.75;4160740;28;20222;-47
2023/10/07 10:05:31;;;;;;;2.88;1.20;;;;;;;15.11;97.73;99521.06;4171253;28;20206;-47
2023/10/07 10:08:11;;;;;;;4.60;1.83;;;;;;;15.14;97.47;99504.03;4183621;28;20306;-47
2023/10/07 10:10:14;;;;;;;1.05;1.00;;;;;;;15.20;97.76;99502.16;4180471;28;20215;-46
2023/10/07 10:12:18;;;;;;;1.48;0.90;;;;;;;15.46;97.76;99495.91;4169347;28;20216;-47
2023/10/07 10:14:39;;;;;;;8.85;2.20;;;;;;;15.39;95.10;99496.13;4165139;28;20295;-47
2023/10/07 10:16:45;;;;;;;2.25;2.08;;;;;;;15.45;94.75;99485.97;4182945;28;20281;-46
2023/10/07 10:19:16;;;;;;;3.50;1.70;;;;;;;15.38;95.83;99488.94;4181530;28;20208;-47
2023/10/07 10:21:14;;;;;;;2.20;1.70;;;;;;;15.22;95.49;99500.00;4168064;28;20424;-48
2023/10/07 10:23:19;;;;;;;1.73;1.25;;;;;;;15.20;96.23;99491.97;4163096;28;20215;-47
2023/10/07 10:25:36;;;;;;;2.13;1.50;;;;;;;15.27;97.80;99489.00;4150490;28;20216;-47